Time;durP1;ratioP1;P1;durP2;ratioP2;P2;SDS_P1;SDS_P2;PMS_P1;PMS_P2;Temp;Humidity;BMP_temperature;BMP_pressure;BME280_temperature;BME280_humidity;BME280_pressure;Samples;Min_cycle;Max_cycle;Signal;HPM_P1;HPM_P2
2021/11/09 00:02:08;;;;;;;27.83;13.23;;;1.40;99.90;;;;;;5052220;28;20032;-60
2021/11/09 00:04:40;;;;;;;28.63;14.20;;;0.20;99.90;;;;;;5051822;28;20024;-59
2021/11/09 00:07:21;;;;;;;31.50;14.02;;;1.50;99.90;;;;;;5052185;28;20487;-59
2021/11/09 00:09:59;;;;;;;34.60;15.88;;;1.40;99.90;;;;;;5051936;28;20036;-59
2021/11/09 00:12:34;;;;;;;34.78;14.48;;;1.30;99.90;;;;;;5052062;28;20104;-60
2021/11/09 00:15:02;;;;;;;35.22;14.88;;;1.60;99.90;;;;;;5051215;28;20029;-60
2021/11/09 00:17:28;;;;;;;40.25;15.70;;;2.10;99.90;;;;;;5051849;28;20103;-60
2021/11/09 00:19:54;;;;;;;31.67;14.95;;;1.30;99.90;;;;;;5051767;28;20108;-59
2021/11/09 00:22:22;;;;;;;33.85;16.00;;;1.30;99.90;;;;;;5052042;28;20025;-60
2021/11/09 00:24:48;;;;;;;43.90;16.23;;;1.30;99.90;;;;;;5051207;28;20033;-60
2021/11/09 00:27:14;;;;;;;39.88;15.90;;;1.30;99.90;;;;;;5051709;28;20032;-59
2021/11/09 00:29:41;;;;;;;40.15;15.90;;;1.30;99.90;;;;;;5050901;28;20021;-60
2021/11/09 00:32:07;;;;;;;34.15;15.77;;;1.30;99.90;;;;;;5051526;28;20062;-59
2021/11/09 00:34:34;;;;;;;36.67;14.63;;;1.30;99.90;;;;;;5051150;28;20033;-60
2021/11/09 00:37:00;;;;;;;33.45;15.05;;;2.00;99.90;;;;;;5051170;28;20056;-60
2021/11/09 00:39:25;;;;;;;37.03;14.48;;;1.50;99.90;;;;;;5051066;28;20041;-60
2021/11/09 00:41:51;;;;;;;34.72;15.38;;;1.50;99.90;;;;;;5051704;28;20040;-60
2021/11/09 00:44:17;;;;;;;32.00;15.10;;;1.40;99.90;;;;;;5050797;28;20025;-60
2021/11/09 00:46:43;;;;;;;46.15;15.48;;;1.50;99.90;;;;;;5051309;28;20017;-60
2021/11/09 00:49:09;;;;;;;35.90;14.10;;;1.50;99.90;;;;;;5051436;28;20115;-60
2021/11/09 00:51:35;;;;;;;31.80;15.23;;;1.50;99.90;;;;;;5051441;28;20060;-60
2021/11/09 00:54:01;;;;;;;34.22;16.38;;;1.50;99.90;;;;;;5051261;28;20016;-60
2021/11/09 00:56:27;;;;;;;37.42;15.70;;;1.40;99.90;;;;;;5050757;28;20029;-60
2021/11/09 00:58:53;;;;;;;36.22;14.82;;;1.70;99.90;;;;;;5050842;28;20036;-60
2021/11/09 01:01:19;;;;;;;28.23;13.73;;;1.90;99.90;;;;;;5051539;28;20040;-59
2021/11/09 01:03:45;;;;;;;29.00;14.95;;;1.40;99.90;;;;;;5051213;28;20025;-60
2021/11/09 01:06:11;;;;;;;29.73;14.85;;;1.20;99.90;;;;;;5050698;28;20032;-60
2021/11/09 01:08:36;;;;;;;30.85;14.25;;;2.20;99.90;;;;;;5050996;28;20028;-59
2021/11/09 01:11:03;;;;;;;28.38;14.00;;;1.10;99.90;;;;;;5051427;28;20029;-57
2021/11/09 01:13:30;;;;;;;29.90;13.77;;;1.10;99.90;;;;;;5051232;28;20021;-58
2021/11/09 01:15:57;;;;;;;23.45;13.43;;;1.50;99.90;;;;;;5050335;28;20407;-60
2021/11/09 01:18:34;;;;;;;28.25;14.27;;;1.00;99.90;;;;;;5051217;28;20048;-59
2021/11/09 01:21:00;;;;;;;24.13;13.15;;;1.10;99.90;;;;;;5051353;28;20025;-60
2021/11/09 01:23:27;;;;;;;27.48;13.10;;;1.10;99.90;;;;;;5051131;28;20469;-60
2021/11/09 01:25:53;;;;;;;21.67;12.95;;;1.10;99.90;;;;;;5050474;28;20035;-58
2021/11/09 01:28:19;;;;;;;36.00;13.77;;;1.20;99.90;;;;;;5051114;28;20021;-60
2021/11/09 01:30:46;;;;;;;32.15;14.63;;;1.20;99.90;;;;;;5050990;28;20025;-60
2021/11/09 01:33:13;;;;;;;26.42;14.10;;;1.30;99.90;;;;;;5051448;28;20387;-58
2021/11/09 01:35:39;;;;;;;29.30;14.30;;;1.30;99.90;;;;;;5050769;28;20525;-58
2021/11/09 01:38:06;;;;;;;32.58;14.90;;;1.30;99.90;;;;;;5051080;28;20029;-59
2021/11/09 01:40:33;;;;;;;31.05;15.02;;;1.50;99.90;;;;;;5051277;28;20112;-60
2021/11/09 01:43:00;;;;;;;30.48;14.80;;;1.50;99.90;;;;;;5054341;28;20167;-60
2021/11/09 01:45:27;;;;;;;32.13;14.65;;;1.30;99.90;;;;;;5054018;28;20390;-60
2021/11/09 01:47:53;;;;;;;32.30;15.10;;;1.40;99.90;;;;;;5055050;28;20413;-57
2021/11/09 01:50:25;;;;;;;34.75;14.18;;;1.30;99.90;;;;;;5054878;28;20022;-60
2021/11/09 01:52:51;;;;;;;30.45;15.40;;;1.20;99.90;;;;;;5055321;28;20078;-60
2021/11/09 01:55:19;;;;;;;32.40;13.90;;;2.00;99.90;;;;;;5054202;28;20035;-61
2021/11/09 01:57:44;;;;;;;26.02;14.45;;;1.20;99.90;;;;;;5054588;28;20107;-60
2021/11/09 02:00:17;;;;;;;27.33;14.73;;;1.20;99.90;;;;;;5091547;22;20156;-61
2021/11/09 02:02:44;;;;;;;38.95;15.05;;;1.20;99.90;;;;;;5006219;28;20049;-62
2021/11/09 02:05:13;;;;;;;32.00;16.65;;;1.20;99.90;;;;;;5014187;28;20034;-62
2021/11/09 02:07:47;;;;;;;39.33;14.48;;;1.70;99.90;;;;;;5014933;28;20050;-62
2021/11/09 02:10:15;;;;;;;20.63;13.05;;;1.40;99.90;;;;;;5014740;28;20096;-63
2021/11/09 02:12:42;;;;;;;25.45;12.55;;;1.10;99.90;;;;;;5015117;28;20026;-62
2021/11/09 02:15:09;;;;;;;94.38;15.93;;;1.00;99.90;;;;;;5018734;28;20072;-62
2021/11/09 02:17:39;;;;;;;21.42;13.40;;;1.10;99.90;;;;;;5021912;28;20045;-61
2021/11/09 02:20:07;;;;;;;20.63;12.93;;;1.00;99.90;;;;;;5025524;28;20034;-62
2021/11/09 02:22:34;;;;;;;33.70;11.70;;;1.00;99.90;;;;;;5021880;28;20030;-62
2021/11/09 02:25:05;;;;;;;20.02;11.65;;;1.00;99.90;;;;;;4997450;28;20476;-61
2021/11/09 02:27:31;;;;;;;47.80;11.45;;;0.80;99.90;;;;;;5015735;28;20029;-62
2021/11/09 02:29:57;;;;;;;18.77;11.32;;;0.80;99.90;;;;;;5014716;28;20109;-63
2021/11/09 02:32:23;;;;;;;16.52;10.98;;;0.80;99.90;;;;;;4995898;28;20031;-61
2021/11/09 02:34:49;;;;;;;27.52;12.40;;;0.90;99.90;;;;;;4994787;28;20026;-60
2021/11/09 02:37:16;;;;;;;21.30;11.90;;;0.90;99.90;;;;;;4995180;28;20037;-62
2021/11/09 02:39:42;;;;;;;16.92;11.88;;;0.80;99.90;;;;;;4994850;28;20565;-62
2021/11/09 02:42:15;;;;;;;21.40;12.18;;;1.30;99.90;;;;;;4994564;28;20069;-62
2021/11/09 02:45:00;;;;;;;22.35;12.20;;;0.90;99.90;;;;;;4994076;28;20058;-63
2021/11/09 02:47:29;;;;;;;43.05;13.18;;;1.70;99.90;;;;;;4994318;28;20033;-63
2021/11/09 02:50:03;;;;;;;42.88;12.57;;;0.90;99.90;;;;;;4994511;28;20092;-63
2021/11/09 02:52:30;;;;;;;21.25;13.23;;;0.90;99.90;;;;;;4994614;28;20018;-62
2021/11/09 02:55:06;;;;;;;22.90;13.77;;;0.80;99.90;;;;;;4992965;28;20026;-63
2021/11/09 03:00:30;;;;;;;26.92;12.30;;;0.90;99.90;;;;;;4976883;28;20507;-62
2021/11/09 03:03:11;;;;;;;20.02;12.57;;;0.80;99.90;;;;;;4994355;28;20407;-62
2021/11/09 03:05:50;;;;;;;20.83;12.50;;;0.80;99.90;;;;;;4993577;28;20018;-62
2021/11/09 03:08:32;;;;;;;25.52;13.05;;;1.30;99.90;;;;;;4994281;28;20030;-61
2021/11/09 03:11:00;;;;;;;22.17;13.77;;;0.70;99.90;;;;;;4993049;28;20539;-62
2021/11/09 03:13:26;;;;;;;21.42;13.65;;;0.70;99.90;;;;;;4994129;28;20038;-60
2021/11/09 03:15:54;;;;;;;31.98;13.15;;;0.70;99.90;;;;;;4993244;28;20629;-61
2021/11/09 03:18:24;;;;;;;26.55;14.05;;;0.70;99.90;;;;;;4992316;28;20022;-60
2021/11/09 03:45:19;;;;;;;19.73;12.10;;;0.10;99.90;;;;;;4992754;28;20041;-61
2021/11/09 03:47:48;;;;;;;32.40;12.93;;;0.20;99.90;;;;;;4993411;28;20034;-62
2021/11/09 03:50:18;;;;;;;16.67;11.75;;;0.30;99.90;;;;;;4993620;28;20529;-60
2021/11/09 03:59:00;;;;;;;23.20;13.15;;;0.40;99.90;;;;;;4993496;28;20388;-61
2021/11/09 04:01:09;;;;;;;18.90;12.38;;;0.20;99.90;;;;;;4982227;28;20050;-61
2021/11/09 04:11:58;;;;;;;19.98;11.65;;;0.60;99.90;;;;;;4993284;28;20041;-63
2021/11/09 04:19:57;;;;;;;124.18;15.52;;;0.30;99.90;;;;;;4993130;28;20034;-62
2021/11/09 05:10:46;;;;;;;17.85;11.05;;;0.20;99.90;;;;;;4992831;28;20545;-71
2021/11/09 05:13:12;;;;;;;16.42;11.35;;;0.30;99.90;;;;;;4992024;28;20026;-71
2021/11/09 05:15:38;;;;;;;15.73;11.02;;;0.10;99.90;;;;;;4991699;28;20026;-71
2021/11/09 05:18:04;;;;;;;18.23;11.32;;;0.10;99.90;;;;;;4995441;28;20027;-71
2021/11/09 05:20:30;;;;;;;19.40;12.40;;;0.00;99.90;;;;;;4996155;28;20439;-71
2021/11/09 05:22:57;;;;;;;17.15;11.80;;;0.10;99.90;;;;;;4996315;28;20026;-71
2021/11/09 05:25:23;;;;;;;37.13;11.70;;;0.10;99.90;;;;;;4995407;28;20033;-71
2021/11/09 05:27:49;;;;;;;22.52;11.35;;;0.60;99.90;;;;;;4995845;28;20022;-71
2021/11/09 05:30:16;;;;;;;19.35;11.68;;;0.20;99.90;;;;;;4996013;28;20046;-72
2021/11/09 05:32:43;;;;;;;13.30;9.88;;;0.10;99.90;;;;;;4995992;28;20532;-72
2021/11/09 05:35:09;;;;;;;18.67;10.30;;;0.00;99.90;;;;;;4995697;28;20440;-70
2021/11/09 05:37:45;;;;;;;18.48;10.02;;;0.00;99.90;;;;;;4995373;28;20026;-71
2021/11/09 05:40:11;;;;;;;14.52;10.85;;;0.00;99.90;;;;;;4995879;28;20030;-72
2021/11/09 05:42:37;;;;;;;16.00;11.27;;;-0.10;99.90;;;;;;4996198;28;20034;-71
2021/11/09 05:45:04;;;;;;;15.70;11.80;;;0.00;99.90;;;;;;4995171;28;20041;-71
2021/11/09 05:47:30;;;;;;;22.35;11.80;;;-0.10;99.90;;;;;;4995238;28;20105;-71
2021/11/09 05:49:56;;;;;;;20.52;11.35;;;-0.20;99.90;;;;;;4995764;28;20030;-72
2021/11/09 05:52:22;;;;;;;16.65;10.93;;;-0.10;99.90;;;;;;4995647;28;20019;-73
2021/11/09 05:54:48;;;;;;;20.63;12.23;;;-0.10;99.90;;;;;;4995172;28;20065;-71
2021/11/09 05:57:14;;;;;;;17.63;11.63;;;-0.20;99.90;;;;;;4995146;28;20157;-66
2021/11/09 05:59:40;;;;;;;18.50;11.32;;;-0.20;99.90;;;;;;4994972;28;20026;-69
2021/11/09 06:02:06;;;;;;;22.00;12.55;;;-0.10;99.90;;;;;;4994505;28;20022;-69
2021/11/09 06:04:32;;;;;;;21.83;11.32;;;0.00;99.90;;;;;;4994844;28;20026;-78
2021/11/09 06:06:58;;;;;;;17.77;11.98;;;0.30;99.90;;;;;;4995337;28;20052;-79
2021/11/09 06:09:24;;;;;;;20.48;12.15;;;0.00;99.90;;;;;;4997043;28;20078;-79
2021/11/09 06:11:49;;;;;;;20.42;11.68;;;-0.10;99.90;;;;;;4997266;28;20084;-79
2021/11/09 06:14:15;;;;;;;16.77;11.82;;;0.90;99.90;;;;;;4995353;28;20065;-70
2021/11/09 06:16:41;;;;;;;19.52;13.05;;;0.40;99.90;;;;;;4995174;28;20374;-70
2021/11/09 06:19:06;;;;;;;30.60;12.43;;;0.20;99.90;;;;;;4996856;28;20611;-70
2021/11/09 06:21:33;;;;;;;17.55;10.85;;;0.10;99.90;;;;;;4994789;28;20038;-73
2021/11/09 06:23:59;;;;;;;18.30;11.77;;;0.10;99.90;;;;;;4995167;28;20037;-72
2021/11/09 06:26:25;;;;;;;32.20;12.18;;;0.10;99.90;;;;;;4994373;28;20109;-73
2021/11/09 06:28:56;;;;;;;37.70;12.98;;;1.10;99.90;;;;;;4993502;28;20034;-72
2021/11/09 06:31:22;;;;;;;24.55;11.60;;;0.00;99.90;;;;;;4994436;28;20484;-73
2021/11/09 06:33:47;;;;;;;23.83;12.73;;;0.10;99.90;;;;;;4994816;28;20041;-74
2021/11/09 06:36:13;;;;;;;18.15;11.23;;;0.10;99.90;;;;;;4994194;28;20026;-71
2021/11/09 06:38:39;;;;;;;19.77;11.80;;;0.00;99.90;;;;;;4994270;28;20076;-72
2021/11/09 06:41:05;;;;;;;17.88;12.50;;;-0.10;99.90;;;;;;4994950;28;20027;-71
2021/11/09 06:43:31;;;;;;;25.63;12.73;;;0.70;99.90;;;;;;4994574;28;20029;-71
2021/11/09 06:45:57;;;;;;;39.60;12.70;;;-0.10;99.90;;;;;;4993898;28;20477;-72
2021/11/09 06:48:26;;;;;;;21.35;12.05;;;0.40;99.90;;;;;;4994175;28;20026;-72
2021/11/09 06:50:53;;;;;;;21.73;12.75;;;0.00;99.90;;;;;;4994707;28;20023;-71
2021/11/09 06:53:20;;;;;;;39.22;12.55;;;-0.10;99.90;;;;;;4994825;28;20018;-72
2021/11/09 06:55:46;;;;;;;31.10;12.85;;;0.00;99.90;;;;;;4993926;28;20100;-70
2021/11/09 06:58:13;;;;;;;52.42;15.35;;;0.00;99.90;;;;;;4994061;28;20026;-72
2021/11/09 07:00:39;;;;;;;34.72;14.07;;;0.10;99.90;;;;;;4993914;28;20510;-72
2021/11/09 07:03:04;;;;;;;37.83;12.95;;;0.10;99.90;;;;;;4992291;28;20026;-69
2021/11/09 07:05:30;;;;;;;58.10;12.35;;;0.00;99.90;;;;;;4993333;28;20135;-69
2021/11/09 07:07:56;;;;;;;24.83;12.23;;;0.70;99.90;;;;;;4992980;28;20081;-69
2021/11/09 07:10:22;;;;;;;21.98;11.88;;;0.50;99.90;;;;;;4994021;28;20018;-69
2021/11/09 07:12:48;;;;;;;37.85;12.50;;;-0.10;99.90;;;;;;4995221;28;20077;-69
2021/11/09 07:15:15;;;;;;;32.80;12.43;;;0.00;99.90;;;;;;4995313;28;20065;-69
2021/11/09 07:17:41;;;;;;;20.63;12.18;;;-0.10;99.90;;;;;;4994725;28;20126;-67
2021/11/09 07:20:10;;;;;;;17.70;11.10;;;-0.10;99.90;;;;;;4993876;28;20106;-68
2021/11/09 07:22:36;;;;;;;17.75;11.85;;;0.00;99.90;;;;;;4994175;28;20532;-69
2021/11/09 07:25:03;;;;;;;19.63;11.13;;;1.00;99.90;;;;;;4993557;28;20088;-69
2021/11/09 07:27:29;;;;;;;30.40;11.85;;;0.10;99.90;;;;;;5003662;28;20029;-68
2021/11/09 07:29:55;;;;;;;20.48;12.80;;;0.10;99.90;;;;;;5003123;28;20022;-69
2021/11/09 07:32:22;;;;;;;21.90;11.93;;;0.20;99.90;;;;;;4995074;28;20120;-69
2021/11/09 07:34:47;;;;;;;14.15;10.77;;;0.30;99.90;;;;;;4992457;28;20490;-69
2021/11/09 07:37:13;;;;;;;20.15;11.50;;;0.30;99.90;;;;;;4993743;28;20030;-69
2021/11/09 07:39:40;;;;;;;18.80;11.75;;;0.30;99.90;;;;;;4993533;28;20484;-67
2021/11/09 07:42:06;;;;;;;19.70;11.38;;;0.40;99.90;;;;;;4994837;28;20377;-67
2021/11/09 07:44:32;;;;;;;21.45;12.52;;;0.20;99.90;;;;;;4993871;28;20101;-68
2021/11/09 07:46:57;;;;;;;24.55;12.02;;;0.40;99.90;;;;;;4994752;28;20110;-68
2021/11/09 07:49:24;;;;;;;26.50;12.00;;;0.30;99.90;;;;;;4993916;28;20503;-68
2021/11/09 07:51:50;;;;;;;26.10;12.23;;;0.30;99.90;;;;;;4994187;28;20101;-68
2021/11/09 07:54:19;;;;;;;19.17;12.88;;;0.40;99.90;;;;;;4994084;28;20030;-67
2021/11/09 07:56:45;;;;;;;32.78;13.02;;;0.50;99.90;;;;;;4994163;28;20038;-67
2021/11/09 07:59:28;;;;;;;22.75;12.95;;;0.60;99.90;;;;;;4993311;28;20034;-68
2021/11/09 08:02:05;;;;;;;26.92;13.45;;;0.60;99.90;;;;;;4993000;28;20133;-67
2021/11/09 08:04:51;;;;;;;33.55;15.63;;;0.80;99.90;;;;;;4992632;28;20102;-68
2021/11/09 08:07:18;;;;;;;55.13;31.67;;;0.90;99.90;;;;;;4993273;28;20030;-68
2021/11/09 08:09:44;;;;;;;20.85;12.95;;;1.00;99.90;;;;;;4992882;28;20496;-69
2021/11/09 08:12:10;;;;;;;22.02;13.20;;;0.90;99.90;;;;;;4993084;28;20022;-69
2021/11/09 08:14:36;;;;;;;18.92;12.70;;;0.90;99.90;;;;;;4992394;28;20038;-68
2021/11/09 08:17:03;;;;;;;19.52;12.38;;;0.80;99.90;;;;;;5012730;23;20032;-58
2021/11/09 08:19:28;;;;;;;22.08;13.10;;;1.00;99.90;;;;;;5063574;28;20046;-58
2021/11/09 08:21:56;;;;;;;22.17;13.15;;;1.10;99.90;;;;;;5071536;28;20029;-58
2021/11/09 08:24:23;;;;;;;27.20;12.73;;;1.10;99.90;;;;;;5071198;28;20531;-56
2021/11/09 08:26:50;;;;;;;19.98;12.10;;;1.30;99.90;;;;;;5071547;28;20032;-59
2021/11/09 08:29:19;;;;;;;35.42;13.05;;;1.40;99.90;;;;;;5071805;28;20398;-58
2021/11/09 08:31:46;;;;;;;21.40;12.48;;;1.90;99.90;;;;;;5071589;28;20433;-58
2021/11/09 08:34:12;;;;;;;29.88;14.07;;;1.30;99.90;;;;;;5071234;28;20551;-58
2021/11/09 08:36:42;;;;;;;29.45;14.00;;;1.30;99.90;;;;;;5070654;28;20089;-58
2021/11/09 08:39:09;;;;;;;26.55;13.10;;;1.90;99.90;;;;;;5072186;28;20035;-59
2021/11/09 08:41:46;;;;;;;23.95;14.27;;;1.40;99.90;;;;;;5072310;28;20028;-60
2021/11/09 08:44:16;;;;;;;24.92;13.65;;;1.50;99.90;;;;;;5071730;28;20036;-60
2021/11/09 08:46:46;;;;;;;29.42;16.50;;;1.80;99.90;;;;;;5068951;28;20056;-60
2021/11/09 08:49:14;;;;;;;25.60;14.77;;;2.30;99.90;;;;;;5051953;28;20775;-59
2021/11/09 08:51:40;;;;;;;28.13;14.18;;;2.30;99.90;;;;;;5051127;28;20530;-59
2021/11/09 08:54:33;;;;;;;26.25;14.70;;;2.30;99.90;;;;;;5051784;28;20029;-60
2021/11/09 08:57:16;;;;;;;21.88;14.23;;;2.30;99.90;;;;;;5051486;28;20029;-58
2021/11/09 09:05:15;;;;;;;31.20;18.52;;;2.40;99.90;;;;;;5049949;28;20109;-56
2021/11/09 09:07:42;;;;;;;24.80;14.82;;;2.60;99.90;;;;;;5051305;28;20035;-60
2021/11/09 09:10:11;;;;;;;29.55;13.63;;;2.90;99.90;;;;;;5051282;28;20082;-59
2021/11/09 09:12:39;;;;;;;19.92;13.90;;;2.80;99.90;;;;;;5051220;28;20023;-58
2021/11/09 09:15:07;;;;;;;31.50;14.38;;;2.90;99.90;;;;;;5050823;28;20017;-57
2021/11/09 09:17:35;;;;;;;23.95;14.07;;;3.00;99.90;;;;;;5050891;28;20036;-57
2021/11/09 09:20:27;;;;;;;22.05;13.27;;;3.10;99.90;;;;;;5042835;28;20096;-57
2021/11/09 09:23:05;;;;;;;26.63;16.02;;;2.90;99.90;;;;;;5031371;28;20029;-57
2021/11/09 09:57:24;;;;;;;19.85;10.63;;;11.50;99.90;;;;;;5051417;28;20029;-59
2021/11/09 09:59:54;;;;;;;15.82;10.68;;;11.80;99.90;;;;;;5051172;28;20036;-59
2021/11/09 10:02:28;;;;;;;14.65;10.65;;;11.90;99.90;;;;;;5051384;28;20036;-61
2021/11/09 10:04:57;;;;;;;15.75;11.45;;;12.00;99.90;;;;;;5054566;28;20029;-60
2021/11/09 10:07:35;;;;;;;16.63;11.52;;;12.80;99.90;;;;;;5054835;28;20074;-58
2021/11/09 10:10:03;;;;;;;16.10;11.98;;;13.20;99.90;;;;;;5055230;28;20029;-60
2021/11/09 10:12:35;;;;;;;15.32;11.00;;;13.10;99.90;;;;;;5053523;28;20159;-59
2021/11/09 10:15:19;;;;;;;15.07;10.43;;;13.00;99.90;;;;;;5053422;28;20171;-60
2021/11/09 10:17:53;;;;;;;15.30;10.35;;;13.00;99.90;;;;;;5053535;28;20375;-63
2021/11/09 10:20:24;;;;;;;14.30;10.52;;;13.10;99.90;;;;;;5054517;28;20048;-65
2021/11/09 10:22:58;;;;;;;17.25;10.10;;;12.80;99.90;;;;;;5054550;28;20025;-65
2021/11/09 10:25:25;;;;;;;16.70;9.93;;;13.70;99.90;;;;;;5053818;28;20505;-65
2021/11/09 10:27:57;;;;;;;13.52;9.48;;;14.50;99.50;;;;;;5054452;28;20033;-64
2021/11/09 10:30:29;;;;;;;18.80;10.02;;;13.90;98.10;;;;;;5054468;28;20031;-65
2021/11/09 10:32:56;;;;;;;17.38;10.40;;;12.40;99.90;;;;;;5054597;28;20364;-64
2021/11/09 10:35:22;;;;;;;15.55;9.75;;;13.50;99.90;;;;;;5053905;28;20035;-61
2021/11/09 10:37:53;;;;;;;17.55;8.70;;;14.40;99.40;;;;;;5054001;28;20021;-60
2021/11/09 10:40:25;;;;;;;13.57;9.18;;;14.00;98.90;;;;;;5053862;28;20493;-60
2021/11/09 10:42:54;;;;;;;12.93;8.80;;;15.40;99.30;;;;;;5053999;28;20108;-61
2021/11/09 10:45:24;;;;;;;17.58;9.77;;;15.00;97.20;;;;;;5053051;28;20053;-72
2021/11/09 10:48:01;;;;;;;14.20;9.60;;;15.80;97.50;;;;;;5053380;28;20024;-66
2021/11/09 10:50:34;;;;;;;17.08;9.75;;;15.70;95.70;;;;;;5052471;28;20021;-66
2021/11/09 10:53:34;;;;;;;14.38;8.73;;;15.70;96.70;;;;;;5053160;28;20104;-65
2021/11/09 11:06:37;;;;;;;13.05;7.22;;;16.70;95.10;;;;;;5053146;28;20032;-66
2021/11/09 11:09:12;;;;;;;9.73;6.45;;;17.10;94.90;;;;;;5053375;28;20039;-64
2021/11/09 11:11:43;;;;;;;13.05;7.70;;;16.90;94.60;;;;;;5053587;28;20021;-64
2021/11/09 11:14:13;;;;;;;12.30;7.57;;;17.30;94.20;;;;;;5052086;28;20070;-64
2021/11/09 11:16:46;;;;;;;9.27;6.97;;;17.80;93.50;;;;;;5052717;28;20078;-64
2021/11/09 11:19:17;;;;;;;9.65;6.72;;;17.90;92.80;;;;;;5052847;28;20359;-65
2021/11/09 11:21:44;;;;;;;10.23;6.75;;;17.80;92.20;;;;;;5053165;28;20083;-64
2021/11/09 11:24:12;;;;;;;13.63;6.03;;;18.00;92.50;;;;;;5053595;28;20429;-64
2021/11/09 11:26:39;;;;;;;8.50;5.93;;;18.20;92.80;;;;;;5052671;28;20025;-66
2021/11/09 11:29:05;;;;;;;10.93;4.90;;;18.20;91.00;;;;;;5053008;28;20040;-65
2021/11/09 11:31:32;;;;;;;10.63;4.78;;;18.50;90.70;;;;;;5052878;28;20044;-66
2021/11/09 11:33:58;;;;;;;9.05;4.60;;;18.40;90.70;;;;;;5052970;28;20021;-66
2021/11/09 11:36:24;;;;;;;6.93;3.72;;;18.70;89.60;;;;;;5051240;28;20021;-66
2021/11/09 11:38:54;;;;;;;9.40;3.33;;;18.90;89.60;;;;;;5051662;28;20518;-64
2021/11/09 11:41:22;;;;;;;7.57;4.10;;;19.20;87.10;;;;;;5052556;28;20040;-64
2021/11/09 11:43:48;;;;;;;6.55;3.50;;;19.30;85.90;;;;;;5052615;28;20025;-66
2021/11/09 11:46:36;;;;;;;9.10;3.90;;;19.20;84.30;;;;;;5051903;28;20029;-64
2021/11/09 11:49:06;;;;;;;8.02;3.40;;;18.80;83.40;;;;;;5030906;28;20108;-64
2021/11/09 11:51:37;;;;;;;9.50;3.40;;;18.80;84.40;;;;;;5032718;28;20025;-64
2021/11/09 11:54:05;;;;;;;9.25;3.70;;;19.30;85.00;;;;;;5032595;28;20026;-64
2021/11/09 11:56:41;;;;;;;8.02;3.10;;;19.40;83.80;;;;;;5031847;28;20036;-66
2021/11/09 11:59:12;;;;;;;10.82;3.42;;;19.10;83.00;;;;;;5032639;28;20021;-64
2021/11/09 12:01:39;;;;;;;10.03;3.30;;;18.60;82.40;;;;;;5032515;28;20036;-64
2021/11/09 12:04:08;;;;;;;7.43;3.33;;;18.20;84.80;;;;;;5032146;28;20479;-65
2021/11/09 12:06:51;;;;;;;5.05;3.10;;;17.80;86.30;;;;;;5031880;28;20017;-65
2021/11/09 12:09:37;;;;;;;7.97;3.67;;;17.50;87.40;;;;;;5032498;28;20120;-64
2021/11/09 12:12:19;;;;;;;7.47;3.42;;;18.10;87.90;;;;;;5032355;28;20076;-65
2021/11/09 12:14:57;;;;;;;5.22;3.00;;;18.80;88.50;;;;;;5031531;28;20025;-65
2021/11/09 12:17:40;;;;;;;4.70;2.50;;;20.00;82.50;;;;;;5039202;28;20056;-65
2021/11/09 12:20:08;;;;;;;5.15;3.08;;;19.80;79.80;;;;;;5051702;28;20052;-65
2021/11/09 12:22:49;;;;;;;7.20;3.20;;;20.10;79.60;;;;;;5051479;28;20048;-65
2021/11/09 12:25:34;;;;;;;5.25;2.90;;;20.20;78.60;;;;;;5051166;28;20040;-65
2021/11/09 12:28:06;;;;;;;6.35;3.13;;;20.50;77.30;;;;;;5051989;28;20505;-65
2021/11/09 12:30:32;;;;;;;;;;;20.10;75.80;;;;;;5052126;28;20025;-65
2021/11/09 12:33:11;;;;;;;5.32;2.80;;;20.50;77.60;;;;;;5051732;28;19911;-65
2021/11/09 12:35:38;;;;;;;8.43;2.80;;;20.30;74.40;;;;;;5051124;28;20436;-65
2021/11/09 12:38:07;;;;;;;5.72;2.60;;;20.10;75.50;;;;;;5064787;28;20021;-65
2021/11/09 12:40:47;;;;;;;6.72;2.30;;;20.30;77.60;;;;;;5052053;28;20025;-65
2021/11/09 12:43:31;;;;;;;3.25;2.20;;;20.50;74.60;;;;;;5052230;28;20029;-64
2021/11/09 12:46:08;;;;;;;5.82;2.67;;;20.60;73.00;;;;;;5051832;28;20029;-65
2021/11/09 12:48:37;;;;;;;6.57;2.10;;;20.00;72.50;;;;;;5051221;28;20017;-64
2021/11/09 12:51:08;;;;;;;5.25;2.70;;;20.20;73.10;;;;;;5051701;28;20104;-65
2021/11/09 12:53:44;;;;;;;4.50;2.25;;;20.50;73.40;;;;;;5051762;28;20063;-65
2021/11/09 12:56:31;;;;;;;6.00;2.47;;;20.90;71.20;;;;;;5050946;28;20483;-65
2021/11/09 12:59:06;;;;;;;6.90;2.60;;;20.50;73.00;;;;;;5051282;28;20025;-65
2021/11/09 13:04:45;;;;;;;4.35;2.45;;;20.40;70.90;;;;;;5050786;28;20032;-64
2021/11/09 13:10:05;;;;;;;5.88;2.42;;;19.80;71.60;;;;;;5050704;28;20028;-65
2021/11/09 13:12:33;;;;;;;3.97;2.17;;;20.30;69.90;;;;;;5051746;28;20029;-65
2021/11/09 13:15:14;;;;;;;4.88;2.10;;;20.10;69.40;;;;;;5050576;28;20026;-65
2021/11/09 13:17:45;;;;;;;6.72;2.08;;;20.50;69.60;;;;;;5051096;28;20033;-65
2021/11/09 13:20:23;;;;;;;4.70;2.00;;;20.60;67.00;;;;;;5051405;28;20082;-66
2021/11/09 13:23:01;;;;;;;4.72;2.20;;;20.00;68.40;;;;;;5051698;28;20114;-66
2021/11/09 13:25:46;;;;;;;3.85;2.28;;;20.30;67.90;;;;;;5050651;28;20037;-66
2021/11/09 13:28:11;;;;;;;4.25;1.88;;;20.30;66.60;;;;;;5051004;28;20021;-65
2021/11/09 13:30:37;;;;;;;5.88;2.13;;;19.60;68.00;;;;;;5051222;28;20028;-66
2021/11/09 13:33:03;;;;;;;6.80;2.33;;;19.90;69.50;;;;;;5053346;28;20086;-66
2021/11/09 13:35:33;;;;;;;5.30;2.13;;;20.00;69.70;;;;;;5055189;28;20571;-66
2021/11/09 13:38:10;;;;;;;6.88;2.42;;;20.10;69.50;;;;;;5056809;28;20052;-65
2021/11/09 13:40:45;;;;;;;4.10;2.10;;;20.20;67.50;;;;;;5056677;28;20059;-65
2021/11/09 13:43:13;;;;;;;4.80;2.10;;;20.50;67.90;;;;;;5055223;28;20597;-65
2021/11/09 13:45:40;;;;;;;5.10;2.22;;;20.60;67.90;;;;;;5054444;28;20108;-65
2021/11/09 13:48:18;;;;;;;5.55;1.95;;;20.50;67.60;;;;;;5055811;28;20159;-65
2021/11/09 13:50:48;;;;;;;5.38;2.42;;;19.90;68.60;;;;;;5055227;28;20032;-66
2021/11/09 13:53:48;;;;;;;4.40;1.98;;;20.30;68.70;;;;;;5054897;28;20026;-66
2021/11/09 13:56:20;;;;;;;3.75;2.00;;;19.80;68.10;;;;;;5051972;28;20037;-66
2021/11/09 13:59:05;;;;;;;4.47;2.28;;;20.20;67.80;;;;;;5054919;28;20068;-66
2021/11/09 14:01:38;;;;;;;3.63;2.10;;;20.10;68.30;;;;;;5054826;28;20037;-66
2021/11/09 14:04:14;;;;;;;3.92;2.10;;;20.50;69.40;;;;;;5054622;28;20017;-66
2021/11/09 14:12:30;;;;;;;5.88;1.85;;;19.90;66.20;;;;;;5055013;28;20132;-65
2021/11/09 14:17:40;;;;;;;4.63;2.10;;;20.20;67.60;;;;;;5067299;22;20691;-70
2021/11/09 14:20:18;;;;;;;4.57;2.03;;;19.20;68.90;;;;;;5046027;28;20032;-70
2021/11/09 14:22:46;;;;;;;6.10;2.28;;;19.10;70.00;;;;;;5054417;28;20025;-70
2021/11/09 14:25:16;;;;;;;4.88;2.33;;;19.40;70.20;;;;;;5053876;28;20017;-69
2021/11/09 14:27:46;;;;;;;5.10;2.30;;;19.20;69.90;;;;;;5054173;28;20016;-70
2021/11/09 14:30:18;;;;;;;5.38;2.33;;;18.60;71.60;;;;;;5054029;28;20025;-70
2021/11/09 14:32:45;;;;;;;8.98;2.30;;;17.50;73.20;;;;;;5053726;28;20033;-69
2021/11/09 14:35:16;;;;;;;6.55;2.92;;;16.90;75.70;;;;;;5039344;28;20120;-74
2021/11/09 14:40:31;;;;;;;4.63;2.22;;;15.50;79.80;;;;;;5034432;28;20112;-74
2021/11/09 14:43:02;;;;;;;4.35;2.10;;;14.40;82.60;;;;;;5030235;28;20030;-74
2021/11/09 14:48:07;;;;;;;5.38;3.22;;;13.70;86.30;;;;;;5034024;28;20033;-73
2021/11/09 14:50:59;;;;;;;7.82;3.20;;;13.30;86.00;;;;;;5032938;28;20037;-74
2021/11/09 14:53:35;;;;;;;6.00;2.90;;;12.60;89.00;;;;;;5034039;28;20506;-73
2021/11/09 14:56:14;;;;;;;3.97;2.53;;;12.30;90.30;;;;;;5033167;28;20029;-74
2021/11/09 14:58:51;;;;;;;6.63;2.55;;;12.20;90.40;;;;;;5033723;28;20100;-74
2021/11/09 15:01:18;;;;;;;5.00;2.63;;;12.20;91.00;;;;;;5034777;28;20053;-74
2021/11/09 15:04:04;;;;;;;7.78;3.08;;;11.90;91.20;;;;;;5034193;28;20388;-74
2021/11/09 15:30:50;;;;;;;28.55;14.57;;;10.70;94.30;;;;;;5022893;28;20104;-81
2021/11/09 15:33:28;;;;;;;105.47;53.08;;;10.70;94.70;;;;;;5023018;28;20033;-81
2021/11/09 15:38:29;;;;;;;188.82;95.70;;;10.30;95.20;;;;;;5023564;28;20017;-83
2021/11/09 15:40:55;;;;;;;66.65;33.78;;;10.30;95.50;;;;;;5022023;28;20491;-79
2021/11/09 15:43:22;;;;;;;41.03;20.48;;;10.10;95.60;;;;;;5022597;28;20014;-78
2021/11/09 15:45:48;;;;;;;29.40;14.65;;;10.10;96.10;;;;;;5024275;28;20026;-78
2021/11/09 15:48:13;;;;;;;29.60;15.18;;;10.20;96.40;;;;;;5023357;28;20021;-78
2021/11/09 15:50:39;;;;;;;41.63;22.63;;;10.00;97.10;;;;;;5022698;28;20026;-77
2021/11/09 15:53:05;;;;;;;48.20;26.70;;;9.70;97.10;;;;;;5023432;28;20030;-77
2021/11/09 15:55:31;;;;;;;63.00;35.50;;;9.50;98.40;;;;;;5021136;28;20033;-78
2021/11/09 15:57:57;;;;;;;65.82;31.02;;;9.50;98.80;;;;;;5022851;28;20392;-77
2021/11/09 16:00:23;;;;;;;21.88;12.27;;;9.30;99.30;;;;;;5022354;28;20028;-77
2021/11/09 16:02:49;;;;;;;83.93;40.63;;;9.20;99.00;;;;;;5021249;28;20033;-77